sensor_id;sensor_type;location;lat;lon;timestamp;pressure;altitude;pressure_sealevel;temperature;humidity
17936;BME280;9093;52.062;4.508;2022-08-20T00:00:00;101849.38;;;20.88;73.59
17936;BME280;9093;52.062;4.508;2022-08-20T00:02:41;101842.97;;;20.90;73.84
17936;BME280;9093;52.062;4.508;2022-08-20T00:05:24;101848.41;;;20.90;73.85
17936;BME280;9093;52.062;4.508;2022-08-20T00:08:05;101857.66;;;20.87;73.74
17936;BME280;9093;52.062;4.508;2022-08-20T00:10:47;101859.50;;;20.86;74.04
17936;BME280;9093;52.062;4.508;2022-08-20T00:13:30;101865.94;;;20.85;74.00
17936;BME280;9093;52.062;4.508;2022-08-20T00:16:12;101865.06;;;20.85;73.87
17936;BME280;9093;52.062;4.508;2022-08-20T00:18:53;101864.22;;;20.84;74.06
17936;BME280;9093;52.062;4.508;2022-08-20T00:21:34;101867.63;;;20.86;74.00
17936;BME280;9093;52.062;4.508;2022-08-20T00:24:15;101872.34;;;20.84;74.02
17936;BME280;9093;52.062;4.508;2022-08-20T00:26:55;101868.13;;;20.80;74.02
17936;BME280;9093;52.062;4.508;2022-08-20T00:29:35;101869.00;;;20.81;74.05
17936;BME280;9093;52.062;4.508;2022-08-20T00:32:16;101878.00;;;20.81;74.02
17936;BME280;9093;52.062;4.508;2022-08-20T00:34:56;101875.31;;;20.81;74.13
17936;BME280;9093;52.062;4.508;2022-08-20T00:37:36;101879.00;;;20.80;74.05
17936;BME280;9093;52.062;4.508;2022-08-20T00:40:23;101878.16;;;20.80;73.99
17936;BME280;9093;52.062;4.508;2022-08-20T00:43:05;101881.72;;;20.80;73.97
17936;BME280;9093;52.062;4.508;2022-08-20T00:45:45;101884.41;;;20.80;73.87
17936;BME280;9093;52.062;4.508;2022-08-20T00:48:27;101886.41;;;20.78;73.82
17936;BME280;9093;52.062;4.508;2022-08-20T00:53:50;101888.50;;;20.75;74.23
17936;BME280;9093;52.062;4.508;2022-08-20T00:56:31;101884.19;;;20.72;74.17
17936;BME280;9093;52.062;4.508;2022-08-20T00:59:18;101883.44;;;20.70;73.91
17936;BME280;9093;52.062;4.508;2022-08-20T01:02:00;101876.56;;;20.66;73.99
17936;BME280;9093;52.062;4.508;2022-08-20T01:04:41;101873.94;;;20.65;74.17
17936;BME280;9093;52.062;4.508;2022-08-20T01:07:26;101875.03;;;20.62;74.06
17936;BME280;9093;52.062;4.508;2022-08-20T01:10:13;101869.88;;;20.59;74.17
17936;BME280;9093;52.062;4.508;2022-08-20T01:12:54;101862.94;;;20.55;74.15
17936;BME280;9093;52.062;4.508;2022-08-20T01:15:39;101874.81;;;20.54;74.24
17936;BME280;9093;52.062;4.508;2022-08-20T01:18:22;101879.50;;;20.52;74.15
17936;BME280;9093;52.062;4.508;2022-08-20T01:21:04;101872.59;;;20.48;74.05
17936;BME280;9093;52.062;4.508;2022-08-20T01:26:40;101869.34;;;20.43;74.09
17936;BME280;9093;52.062;4.508;2022-08-20T01:29:23;101877.00;;;20.38;73.95
17936;BME280;9093;52.062;4.508;2022-08-20T01:32:04;101870.09;;;20.34;73.87
17936;BME280;9093;52.062;4.508;2022-08-20T01:34:44;101878.56;;;20.29;73.95
17936;BME280;9093;52.062;4.508;2022-08-20T01:37:24;101875.97;;;20.28;73.88
17936;BME280;9093;52.062;4.508;2022-08-20T01:40:05;101883.34;;;20.26;73.93
17936;BME280;9093;52.062;4.508;2022-08-20T01:42:50;101883.59;;;20.23;73.80
17936;BME280;9093;52.062;4.508;2022-08-20T01:45:31;101878.41;;;20.20;73.71
17936;BME280;9093;52.062;4.508;2022-08-20T01:48:12;101879.63;;;20.16;73.80
17936;BME280;9093;52.062;4.508;2022-08-20T01:50:57;101880.63;;;20.15;73.93
17936;BME280;9093;52.062;4.508;2022-08-20T01:53:43;101880.63;;;20.15;73.75
17936;BME280;9093;52.062;4.508;2022-08-20T01:56:24;101893.41;;;20.13;73.81
17936;BME280;9093;52.062;4.508;2022-08-20T01:59:05;101896.38;;;20.10;73.95
17936;BME280;9093;52.062;4.508;2022-08-20T02:01:46;101888.47;;;20.06;73.97
17936;BME280;9093;52.062;4.508;2022-08-20T02:04:26;101892.16;;;20.05;73.79
17936;BME280;9093;52.062;4.508;2022-08-20T02:07:11;101893.13;;;20.04;73.87
17936;BME280;9093;52.062;4.508;2022-08-20T02:09:52;101888.72;;;20.03;73.76
17936;BME280;9093;52.062;4.508;2022-08-20T02:12:32;101895.84;;;20.04;73.77
17936;BME280;9093;52.062;4.508;2022-08-20T02:15:14;101890.41;;;20.04;73.65
17936;BME280;9093;52.062;4.508;2022-08-20T02:17:54;101893.13;;;20.04;73.71
17936;BME280;9093;52.062;4.508;2022-08-20T02:20:36;101892.16;;;20.05;73.67
17936;BME280;9093;52.062;4.508;2022-08-20T02:23:18;101899.41;;;20.05;73.72
17936;BME280;9093;52.062;4.508;2022-08-20T02:25:58;101891.53;;;20.02;73.66
17936;BME280;9093;52.062;4.508;2022-08-20T02:28:39;101892.63;;;19.99;73.55
17936;BME280;9093;52.062;4.508;2022-08-20T02:31:20;101893.84;;;19.95;73.64
17936;BME280;9093;52.062;4.508;2022-08-20T02:34:03;101903.94;;;19.93;73.80
17936;BME280;9093;52.062;4.508;2022-08-20T02:36:44;101898.50;;;19.93;73.73
17936;BME280;9093;52.062;4.508;2022-08-20T02:39:25;101904.19;;;19.90;73.65
17936;BME280;9093;52.062;4.508;2022-08-20T02:42:05;101902.66;;;19.86;73.66
17936;BME280;9093;52.062;4.508;2022-08-20T02:44:45;101905.63;;;19.83;73.64
17936;BME280;9093;52.062;4.508;2022-08-20T02:47:26;101908.56;;;19.80;73.74
17936;BME280;9093;52.062;4.508;2022-08-20T02:50:06;101906.81;;;19.79;73.80
17936;BME280;9093;52.062;4.508;2022-08-20T02:52:49;101906.00;;;19.79;73.81
17936;BME280;9093;52.062;4.508;2022-08-20T02:55:29;101903.13;;;19.80;73.75
17936;BME280;9093;52.062;4.508;2022-08-20T02:58:10;101902.28;;;19.80;73.67
17936;BME280;9093;52.062;4.508;2022-08-20T03:00:51;101905.84;;;19.80;73.76
17936;BME280;9093;52.062;4.508;2022-08-20T03:03:32;101902.41;;;19.78;73.58
17936;BME280;9093;52.062;4.508;2022-08-20T03:06:12;101902.53;;;19.77;73.63
17936;BME280;9093;52.062;4.508;2022-08-20T03:08:52;101910.75;;;19.75;73.80
17936;BME280;9093;52.062;4.508;2022-08-20T03:11:33;101911.88;;;19.73;73.53
17936;BME280;9093;52.062;4.508;2022-08-20T03:14:13;101910.47;;;19.67;73.71
17936;BME280;9093;52.062;4.508;2022-08-20T03:16:54;101905.41;;;19.62;73.63
17936;BME280;9093;52.062;4.508;2022-08-20T03:19:34;101905.66;;;19.59;73.65
17936;BME280;9093;52.062;4.508;2022-08-20T03:22:14;101899.56;;;19.56;73.76
17936;BME280;9093;52.062;4.508;2022-08-20T03:24:54;101900.53;;;19.55;73.78
17936;BME280;9093;52.062;4.508;2022-08-20T03:27:34;101894.41;;;19.53;73.68
17936;BME280;9093;52.062;4.508;2022-08-20T03:30:15;101901.88;;;19.49;73.60
17936;BME280;9093;52.062;4.508;2022-08-20T03:32:55;101909.38;;;19.46;73.73
17936;BME280;9093;52.062;4.508;2022-08-20T03:35:36;101909.56;;;19.43;73.81
17936;BME280;9093;52.062;4.508;2022-08-20T03:38:18;101915.31;;;19.38;73.90
17936;BME280;9093;52.062;4.508;2022-08-20T03:40:59;101912.81;;;19.35;73.84
17936;BME280;9093;52.062;4.508;2022-08-20T03:43:40;101916.75;;;19.31;73.72
17936;BME280;9093;52.062;4.508;2022-08-20T03:46:20;101909.94;;;19.25;73.80
17936;BME280;9093;52.062;4.508;2022-08-20T03:49:01;101914.84;;;19.20;73.87
17936;BME280;9093;52.062;4.508;2022-08-20T03:51:41;101915.28;;;19.14;73.78
17936;BME280;9093;52.062;4.508;2022-08-20T03:54:21;101915.59;;;19.10;73.88
17936;BME280;9093;52.062;4.508;2022-08-20T03:57:01;101913.22;;;19.05;73.90
17936;BME280;9093;52.062;4.508;2022-08-20T03:59:42;101908.06;;;19.02;74.07
17936;BME280;9093;52.062;4.508;2022-08-20T04:02:23;101911.19;;;18.96;73.90
17936;BME280;9093;52.062;4.508;2022-08-20T04:05:04;101916.81;;;18.93;74.05
17936;BME280;9093;52.062;4.508;2022-08-20T04:07:44;101914.34;;;18.90;73.98
17936;BME280;9093;52.062;4.508;2022-08-20T04:10:24;101915.53;;;18.86;73.75
17936;BME280;9093;52.062;4.508;2022-08-20T04:13:06;101921.16;;;18.83;73.92
17936;BME280;9093;52.062;4.508;2022-08-20T04:15:46;101922.25;;;18.80;74.05
17936;BME280;9093;52.062;4.508;2022-08-20T04:18:27;101919.88;;;18.76;73.92
17936;BME280;9093;52.062;4.508;2022-08-20T04:21:07;101924.63;;;18.72;74.00
17936;BME280;9093;52.062;4.508;2022-08-20T04:23:47;101924.84;;;18.69;74.02
17936;BME280;9093;52.062;4.508;2022-08-20T04:26:28;101926.03;;;18.65;73.85
17936;BME280;9093;52.062;4.508;2022-08-20T04:29:08;101933.31;;;18.65;73.93
17936;BME280;9093;52.062;4.508;2022-08-20T04:31:48;101927.22;;;18.61;73.88
17936;BME280;9093;52.062;4.508;2022-08-20T04:34:29;101933.72;;;18.59;73.86
17936;BME280;9093;52.062;4.508;2022-08-20T04:37:09;101941.09;;;18.57;73.90
17936;BME280;9093;52.062;4.508;2022-08-20T04:39:50;101942.13;;;18.54;73.91
17936;BME280;9093;52.062;4.508;2022-08-20T04:42:49;101937.81;;;18.52;73.93
17936;BME280;9093;52.062;4.508;2022-08-20T04:45:30;101944.28;;;18.49;73.77
17936;BME280;9093;52.062;4.508;2022-08-20T04:48:10;101950.75;;;18.46;73.82
17936;BME280;9093;52.062;4.508;2022-08-20T04:50:51;101952.72;;;18.44;73.75
17936;BME280;9093;52.062;4.508;2022-08-20T04:53:32;101950.22;;;18.41;73.86
17936;BME280;9093;52.062;4.508;2022-08-20T04:56:13;101949.47;;;18.39;73.83
17936;BME280;9093;52.062;4.508;2022-08-20T04:58:54;101952.38;;;18.36;73.95
17936;BME280;9093;52.062;4.508;2022-08-20T05:01:34;101956.13;;;18.34;73.94
17936;BME280;9093;52.062;4.508;2022-08-20T05:04:15;101955.31;;;18.33;73.86
17936;BME280;9093;52.062;4.508;2022-08-20T05:06:55;101956.13;;;18.34;73.74
17936;BME280;9093;52.062;4.508;2022-08-20T05:09:35;101963.41;;;18.33;73.52
17936;BME280;9093;52.062;4.508;2022-08-20T05:12:15;101951.81;;;18.31;73.62
17936;BME280;9093;52.062;4.508;2022-08-20T05:14:56;101966.31;;;18.30;73.67
17936;BME280;9093;52.062;4.508;2022-08-20T05:17:46;101968.25;;;18.28;73.60
17936;BME280;9093;52.062;4.508;2022-08-20T05:20:31;101968.25;;;18.28;73.62
17936;BME280;9093;52.062;4.508;2022-08-20T05:23:12;101975.38;;;18.29;73.56
17936;BME280;9093;52.062;4.508;2022-08-20T05:25:52;101982.53;;;18.30;73.50
17936;BME280;9093;52.062;4.508;2022-08-20T05:28:33;101981.56;;;18.31;73.39
17936;BME280;9093;52.062;4.508;2022-08-20T05:31:13;101977.91;;;18.32;73.55
17936;BME280;9093;52.062;4.508;2022-08-20T05:33:54;101980.59;;;18.32;73.43
17936;BME280;9093;52.062;4.508;2022-08-20T05:36:39;101985.03;;;18.33;73.44
17936;BME280;9093;52.062;4.508;2022-08-20T05:39:20;101981.34;;;18.34;73.37
17936;BME280;9093;52.062;4.508;2022-08-20T05:42:01;101989.47;;;18.34;73.42
17936;BME280;9093;52.062;4.508;2022-08-20T05:44:41;101994.66;;;18.37;73.35
17936;BME280;9093;52.062;4.508;2022-08-20T05:47:21;101993.72;;;18.38;73.15
17936;BME280;9093;52.062;4.508;2022-08-20T05:50:07;101996.41;;;18.38;73.14
17936;BME280;9093;52.062;4.508;2022-08-20T05:52:48;101997.16;;;18.40;73.32
17936;BME280;9093;52.062;4.508;2022-08-20T05:55:28;101997.91;;;18.42;73.28
17936;BME280;9093;52.062;4.508;2022-08-20T05:58:13;102001.41;;;18.44;73.34
17936;BME280;9093;52.062;4.508;2022-08-20T06:00:53;101998.47;;;18.47;73.24
17936;BME280;9093;52.062;4.508;2022-08-20T06:03:34;102000.97;;;18.51;73.26
17936;BME280;9093;52.062;4.508;2022-08-20T06:06:33;102011.56;;;18.54;73.27
17936;BME280;9093;52.062;4.508;2022-08-20T06:09:14;101996.13;;;18.56;73.13
17936;BME280;9093;52.062;4.508;2022-08-20T06:11:55;102005.91;;;18.58;73.13
17936;BME280;9093;52.062;4.508;2022-08-20T06:14:35;102000.34;;;18.60;73.06
17936;BME280;9093;52.062;4.508;2022-08-20T06:17:16;102001.03;;;18.63;73.06
17936;BME280;9093;52.062;4.508;2022-08-20T06:19:57;102001.66;;;18.67;73.34
17936;BME280;9093;52.062;4.508;2022-08-20T06:22:37;101997.66;;;18.72;73.04
17936;BME280;9093;52.062;4.508;2022-08-20T06:25:17;101998.44;;;18.74;72.90
17936;BME280;9093;52.062;4.508;2022-08-20T06:27:57;102002.78;;;18.77;72.77
17936;BME280;9093;52.062;4.508;2022-08-20T06:30:38;101998.88;;;18.81;73.02
17936;BME280;9093;52.062;4.508;2022-08-20T06:33:19;102003.97;;;18.85;72.76
17936;BME280;9093;52.062;4.508;2022-08-20T06:35:59;102001.91;;;18.89;72.79
17936;BME280;9093;52.062;4.508;2022-08-20T06:38:39;101998.25;;;18.90;72.71
17936;BME280;9093;52.062;4.508;2022-08-20T06:41:20;102004.50;;;18.91;72.74
17936;BME280;9093;52.062;4.508;2022-08-20T06:44:00;102009.06;;;18.90;72.71
17936;BME280;9093;52.062;4.508;2022-08-20T06:46:40;102013.38;;;18.93;72.74
17936;BME280;9093;52.062;4.508;2022-08-20T06:49:22;102006.13;;;18.93;72.55
17936;BME280;9093;52.062;4.508;2022-08-20T06:52:03;102008.84;;;18.93;72.69
17936;BME280;9093;52.062;4.508;2022-08-20T06:54:44;102005.78;;;18.98;72.68
17936;BME280;9093;52.062;4.508;2022-08-20T06:57:24;102016.31;;;19.02;72.42
17936;BME280;9093;52.062;4.508;2022-08-20T07:00:13;102017.06;;;19.04;72.34
17936;BME280;9093;52.062;4.508;2022-08-20T07:02:55;102018.59;;;19.08;72.33
17936;BME280;9093;52.062;4.508;2022-08-20T07:05:37;102022.81;;;19.12;72.07
17936;BME280;9093;52.062;4.508;2022-08-20T07:08:21;102030.72;;;19.15;72.10
17936;BME280;9093;52.062;4.508;2022-08-20T07:11:01;102028.75;;;19.17;72.13
17936;BME280;9093;52.062;4.508;2022-08-20T07:13:41;102032.22;;;19.19;71.84
17936;BME280;9093;52.062;4.508;2022-08-20T07:16:22;102027.34;;;19.24;71.75
17936;BME280;9093;52.062;4.508;2022-08-20T07:19:02;102029.41;;;19.34;71.57
17936;BME280;9093;52.062;4.508;2022-08-20T07:21:43;102037.81;;;19.42;71.25
17936;BME280;9093;52.062;4.508;2022-08-20T07:24:23;102029.59;;;19.43;71.13
17936;BME280;9093;52.062;4.508;2022-08-20T07:27:03;102037.63;;;19.45;71.19
17936;BME280;9093;52.062;4.508;2022-08-20T07:29:43;102033.97;;;19.46;71.22
17936;BME280;9093;52.062;4.508;2022-08-20T07:32:43;102032.19;;;19.45;71.10
17936;BME280;9093;52.062;4.508;2022-08-20T07:35:23;102040.13;;;19.48;71.09
17936;BME280;9093;52.062;4.508;2022-08-20T07:38:03;102046.97;;;19.53;70.88
17936;BME280;9093;52.062;4.508;2022-08-20T07:40:43;102033.09;;;19.58;70.80
17936;BME280;9093;52.062;4.508;2022-08-20T07:43:24;102036.31;;;19.63;70.63
17936;BME280;9093;52.062;4.508;2022-08-20T07:46:05;102041.53;;;19.66;70.58
17936;BME280;9093;52.062;4.508;2022-08-20T07:48:49;102045.72;;;19.70;70.40
17936;BME280;9093;52.062;4.508;2022-08-20T07:51:30;102043.03;;;19.70;70.40
17936;BME280;9093;52.062;4.508;2022-08-20T07:54:10;102043.88;;;19.71;70.30
17936;BME280;9093;52.062;4.508;2022-08-20T07:56:50;102050.06;;;19.73;70.42
17936;BME280;9093;52.062;4.508;2022-08-20T07:59:31;102046.25;;;19.75;70.36
17936;BME280;9093;52.062;4.508;2022-08-20T08:02:11;102051.22;;;19.81;70.06
17936;BME280;9093;52.062;4.508;2022-08-20T08:04:52;102051.75;;;19.86;69.48
17936;BME280;9093;52.062;4.508;2022-08-20T08:07:33;102051.44;;;19.91;69.26
17936;BME280;9093;52.062;4.508;2022-08-20T08:10:15;102052.91;;;19.95;68.81
17936;BME280;9093;52.062;4.508;2022-08-20T08:12:59;102062.44;;;20.00;68.55
17936;BME280;9093;52.062;4.508;2022-08-20T08:15:43;102056.91;;;20.02;68.28
17936;BME280;9093;52.062;4.508;2022-08-20T08:18:27;102046.19;;;20.00;68.21
17936;BME280;9093;52.062;4.508;2022-08-20T08:21:08;102053.34;;;20.01;67.99
17936;BME280;9093;52.062;4.508;2022-08-20T08:23:51;102061.88;;;20.08;68.02
17936;BME280;9093;52.062;4.508;2022-08-20T08:26:32;102056.09;;;20.13;67.88
17936;BME280;9093;52.062;4.508;2022-08-20T08:29:12;102055.66;;;20.19;67.51
17936;BME280;9093;52.062;4.508;2022-08-20T08:31:52;102056.91;;;20.26;67.07
17936;BME280;9093;52.062;4.508;2022-08-20T08:34:34;102056.69;;;20.29;66.30
17936;BME280;9093;52.062;4.508;2022-08-20T08:37:14;102057.91;;;20.25;66.59
17936;BME280;9093;52.062;4.508;2022-08-20T08:39:55;102057.69;;;20.28;66.21
17936;BME280;9093;52.062;4.508;2022-08-20T08:42:42;102058.22;;;20.33;65.57
17936;BME280;9093;52.062;4.508;2022-08-20T08:45:24;102052.44;;;20.37;65.26
17936;BME280;9093;52.062;4.508;2022-08-20T08:48:06;102054.06;;;20.40;64.15
17936;BME280;9093;52.062;4.508;2022-08-20T08:50:48;102056.41;;;20.44;63.73
17936;BME280;9093;52.062;4.508;2022-08-20T08:53:31;102063.38;;;20.49;63.04
17936;BME280;9093;52.062;4.508;2022-08-20T08:56:13;102058.31;;;20.55;62.73
17936;BME280;9093;52.062;4.508;2022-08-20T08:58:56;102063.28;;;20.61;62.57
17936;BME280;9093;52.062;4.508;2022-08-20T09:01:40;102065.28;;;20.70;62.03
17936;BME280;9093;52.062;4.508;2022-08-20T09:04:31;102061.88;;;20.79;62.19
17936;BME280;9093;52.062;4.508;2022-08-20T09:07:13;102062.66;;;20.93;62.27
17936;BME280;9093;52.062;4.508;2022-08-20T09:09:55;102063.66;;;21.03;62.19
17936;BME280;9093;52.062;4.508;2022-08-20T09:12:35;102063.16;;;21.09;61.87
17936;BME280;9093;52.062;4.508;2022-08-20T09:15:15;102066.38;;;21.14;61.89
17936;BME280;9093;52.062;4.508;2022-08-20T09:17:56;102062.69;;;21.15;61.14
17936;BME280;9093;52.062;4.508;2022-08-20T09:20:36;102065.63;;;21.12;60.48
17936;BME280;9093;52.062;4.508;2022-08-20T09:23:16;102067.72;;;21.08;59.87
17936;BME280;9093;52.062;4.508;2022-08-20T09:25:56;102075.13;;;21.06;60.04
17936;BME280;9093;52.062;4.508;2022-08-20T09:28:37;102067.34;;;21.02;59.95
17936;BME280;9093;52.062;4.508;2022-08-20T09:31:17;102072.03;;;21.00;59.88
17936;BME280;9093;52.062;4.508;2022-08-20T09:33:57;102065.59;;;21.01;60.04
17936;BME280;9093;52.062;4.508;2022-08-20T09:36:37;102071.53;;;21.06;60.24
17936;BME280;9093;52.062;4.508;2022-08-20T09:39:18;102064.91;;;21.10;60.19
17936;BME280;9093;52.062;4.508;2022-08-20T09:42:05;102071.06;;;21.12;60.07
17936;BME280;9093;52.062;4.508;2022-08-20T09:44:45;102064.44;;;21.16;60.07
17936;BME280;9093;52.062;4.508;2022-08-20T09:47:26;102063.22;;;21.31;59.79
17936;BME280;9093;52.062;4.508;2022-08-20T09:50:07;102055.69;;;21.46;59.76
17936;BME280;9093;52.062;4.508;2022-08-20T09:52:47;102059.78;;;21.51;59.69
17936;BME280;9093;52.062;4.508;2022-08-20T09:55:33;102048.16;;;21.60;59.49
17936;BME280;9093;52.062;4.508;2022-08-20T09:58:18;102055.31;;;21.73;59.21
17936;BME280;9093;52.062;4.508;2022-08-20T10:01:00;102056.16;;;21.84;58.77
17936;BME280;9093;52.062;4.508;2022-08-20T10:03:42;102054.78;;;21.90;58.44
17936;BME280;9093;52.062;4.508;2022-08-20T10:06:23;102058.91;;;21.95;58.47
17936;BME280;9093;52.062;4.508;2022-08-20T10:09:03;102059.53;;;21.99;58.38
17936;BME280;9093;52.062;4.508;2022-08-20T10:11:43;102049.25;;;22.02;58.22
17936;BME280;9093;52.062;4.508;2022-08-20T10:14:23;102055.31;;;22.06;58.26
17936;BME280;9093;52.062;4.508;2022-08-20T10:17:03;102041.56;;;22.08;57.77
17936;BME280;9093;52.062;4.508;2022-08-20T10:19:44;102047.75;;;22.10;57.75
17936;BME280;9093;52.062;4.508;2022-08-20T10:22:24;102052.19;;;22.11;57.80
17936;BME280;9093;52.062;4.508;2022-08-20T10:25:06;102052.78;;;22.14;57.98
17936;BME280;9093;52.062;4.508;2022-08-20T10:27:46;102055.28;;;22.17;58.01
17936;BME280;9093;52.062;4.508;2022-08-20T10:30:27;102056.03;;;22.19;57.87
17936;BME280;9093;52.062;4.508;2022-08-20T10:33:07;102056.63;;;22.23;57.94
17936;BME280;9093;52.062;4.508;2022-08-20T10:35:47;102050.91;;;22.26;57.92
17936;BME280;9093;52.062;4.508;2022-08-20T10:38:27;102047.53;;;22.33;58.12
17936;BME280;9093;52.062;4.508;2022-08-20T10:41:07;102053.31;;;22.40;57.93
17936;BME280;9093;52.062;4.508;2022-08-20T10:43:47;102049.38;;;22.44;57.56
17936;BME280;9093;52.062;4.508;2022-08-20T10:46:28;102047.97;;;22.50;57.33
17936;BME280;9093;52.062;4.508;2022-08-20T10:49:08;102049.09;;;22.47;57.29
17936;BME280;9093;52.062;4.508;2022-08-20T10:51:48;102043.78;;;22.45;56.92
17936;BME280;9093;52.062;4.508;2022-08-20T10:54:28;102048.84;;;22.50;57.34
17936;BME280;9093;52.062;4.508;2022-08-20T10:57:11;102048.44;;;22.55;57.22
17936;BME280;9093;52.062;4.508;2022-08-20T10:59:52;102045.44;;;22.58;57.00
17936;BME280;9093;52.062;4.508;2022-08-20T11:02:33;102047.06;;;22.60;57.37
17936;BME280;9093;52.062;4.508;2022-08-20T11:05:13;102052.38;;;22.62;57.26
17936;BME280;9093;52.062;4.508;2022-08-20T11:07:53;102054.34;;;22.60;56.87
17936;BME280;9093;52.062;4.508;2022-08-20T11:10:34;102051.91;;;22.57;56.85
17936;BME280;9093;52.062;4.508;2022-08-20T11:13:14;102042.25;;;22.53;57.03
17936;BME280;9093;52.062;4.508;2022-08-20T11:15:54;102047.72;;;22.53;57.00
17936;BME280;9093;52.062;4.508;2022-08-20T11:18:34;102047.19;;;22.59;56.30
17936;BME280;9093;52.062;4.508;2022-08-20T11:21:15;102050.00;;;22.68;56.44
17936;BME280;9093;52.062;4.508;2022-08-20T11:23:55;102050.38;;;22.75;55.62
17936;BME280;9093;52.062;4.508;2022-08-20T11:26:35;102053.56;;;22.80;55.83
17936;BME280;9093;52.062;4.508;2022-08-20T11:29:15;102061.19;;;22.86;55.84
17936;BME280;9093;52.062;4.508;2022-08-20T11:31:56;102056.75;;;22.85;55.90
17936;BME280;9093;52.062;4.508;2022-08-20T11:34:36;102056.75;;;22.85;56.11
17936;BME280;9093;52.062;4.508;2022-08-20T11:37:17;102052.03;;;22.87;55.86
17936;BME280;9093;52.062;4.508;2022-08-20T11:39:58;102054.22;;;22.93;55.62
17936;BME280;9093;52.062;4.508;2022-08-20T11:42:38;102049.34;;;22.97;54.69
17936;BME280;9093;52.062;4.508;2022-08-20T11:45:18;102052.16;;;23.06;54.59
17936;BME280;9093;52.062;4.508;2022-08-20T11:47:59;102054.22;;;23.14;54.40
17936;BME280;9093;52.062;4.508;2022-08-20T11:50:39;102058.81;;;23.13;54.37
17936;BME280;9093;52.062;4.508;2022-08-20T11:53:19;102064.78;;;23.07;54.88
17936;BME280;9093;52.062;4.508;2022-08-20T11:56:00;102058.16;;;23.00;54.77
17936;BME280;9093;52.062;4.508;2022-08-20T11:58:40;102064.72;;;22.98;55.22
17936;BME280;9093;52.062;4.508;2022-08-20T12:01:20;102060.13;;;22.98;55.30
17936;BME280;9093;52.062;4.508;2022-08-20T12:04:01;102047.78;;;22.94;55.03
17936;BME280;9093;52.062;4.508;2022-08-20T12:06:41;102051.75;;;22.90;54.69
17936;BME280;9093;52.062;4.508;2022-08-20T12:09:21;102057.19;;;22.90;54.90
17936;BME280;9093;52.062;4.508;2022-08-20T12:12:01;102062.38;;;22.93;54.91
17936;BME280;9093;52.062;4.508;2022-08-20T12:14:42;102056.13;;;23.02;54.53
17936;BME280;9093;52.062;4.508;2022-08-20T12:17:23;102053.28;;;23.04;54.63
17936;BME280;9093;52.062;4.508;2022-08-20T12:20:06;102055.06;;;23.14;54.61
17936;BME280;9093;52.062;4.508;2022-08-20T12:22:46;102058.25;;;23.19;54.09
17936;BME280;9093;52.062;4.508;2022-08-20T12:25:27;102051.34;;;23.15;54.49
17936;BME280;9093;52.062;4.508;2022-08-20T12:28:07;102059.34;;;23.07;54.78
17936;BME280;9093;52.062;4.508;2022-08-20T12:30:47;102062.19;;;23.06;54.82
17936;BME280;9093;52.062;4.508;2022-08-20T12:33:27;102061.31;;;23.05;54.67
17936;BME280;9093;52.062;4.508;2022-08-20T12:36:08;102073.41;;;23.12;54.44
17936;BME280;9093;52.062;4.508;2022-08-20T12:38:48;102068.88;;;23.22;54.14
17936;BME280;9093;52.062;4.508;2022-08-20T12:41:28;102072.13;;;23.37;54.27
17936;BME280;9093;52.062;4.508;2022-08-20T12:44:08;102070.13;;;23.39;54.30
17936;BME280;9093;52.062;4.508;2022-08-20T12:46:48;102076.97;;;23.34;53.92
17936;BME280;9093;52.062;4.508;2022-08-20T12:49:29;102077.78;;;23.24;54.39
17936;BME280;9093;52.062;4.508;2022-08-20T12:52:09;102084.97;;;23.25;54.55
17936;BME280;9093;52.062;4.508;2022-08-20T12:54:49;102079.44;;;23.37;53.82
17936;BME280;9093;52.062;4.508;2022-08-20T12:57:33;102085.00;;;23.56;53.88
17936;BME280;9093;52.062;4.508;2022-08-20T13:00:19;102083.19;;;23.66;53.41
17936;BME280;9093;52.062;4.508;2022-08-20T13:03:02;102091.53;;;23.74;53.05
17936;BME280;9093;52.062;4.508;2022-08-20T13:05:43;102084.53;;;23.81;52.92
17936;BME280;9093;52.062;4.508;2022-08-20T13:08:23;102075.81;;;23.97;52.48
17936;BME280;9093;52.062;4.508;2022-08-20T13:11:03;102079.28;;;23.99;52.94
17936;BME280;9093;52.062;4.508;2022-08-20T13:13:43;102082.25;;;23.86;52.96
17936;BME280;9093;52.062;4.508;2022-08-20T13:16:25;102074.63;;;23.80;52.89
17936;BME280;9093;52.062;4.508;2022-08-20T13:19:05;102078.78;;;23.84;52.61
17936;BME280;9093;52.062;4.508;2022-08-20T13:21:45;102081.22;;;23.78;52.82
17936;BME280;9093;52.062;4.508;2022-08-20T13:24:25;102085.84;;;23.77;52.70
17936;BME280;9093;52.062;4.508;2022-08-20T13:27:07;102065.88;;;23.86;52.83
17936;BME280;9093;52.062;4.508;2022-08-20T13:29:48;102069.22;;;23.99;52.38
17936;BME280;9093;52.062;4.508;2022-08-20T13:32:29;102087.63;;;24.07;52.63
17936;BME280;9093;52.062;4.508;2022-08-20T13:35:09;102074.41;;;24.02;52.84
17936;BME280;9093;52.062;4.508;2022-08-20T13:37:50;102081.88;;;24.00;52.42
17936;BME280;9093;52.062;4.508;2022-08-20T13:40:31;102083.69;;;23.90;52.53
17936;BME280;9093;52.062;4.508;2022-08-20T13:43:11;102090.72;;;23.83;52.87
17936;BME280;9093;52.062;4.508;2022-08-20T13:45:51;102078.66;;;23.86;53.03
17936;BME280;9093;52.062;4.508;2022-08-20T13:48:31;102095.63;;;23.89;53.01
17936;BME280;9093;52.062;4.508;2022-08-20T13:51:12;102088.44;;;23.88;53.01
17936;BME280;9093;52.062;4.508;2022-08-20T13:53:52;102089.63;;;23.95;53.00
17936;BME280;9093;52.062;4.508;2022-08-20T13:56:32;102089.00;;;23.92;52.57
17936;BME280;9093;52.062;4.508;2022-08-20T13:59:12;102083.25;;;23.85;53.07
17936;BME280;9093;52.062;4.508;2022-08-20T14:01:53;102076.50;;;23.80;53.03
17936;BME280;9093;52.062;4.508;2022-08-20T14:04:33;102074.06;;;23.77;52.64
17936;BME280;9093;52.062;4.508;2022-08-20T14:07:21;102082.94;;;23.79;52.86
17936;BME280;9093;52.062;4.508;2022-08-20T14:10:06;102093.47;;;23.83;52.67
17936;BME280;9093;52.062;4.508;2022-08-20T14:12:46;102079.81;;;23.83;52.74
17936;BME280;9093;52.062;4.508;2022-08-20T14:15:26;102076.66;;;23.88;52.80
17936;BME280;9093;52.062;4.508;2022-08-20T14:18:07;102084.97;;;23.86;52.43